sensor_id;sensor_type;location;lat;lon;timestamp;pressure;altitude;pressure_sealevel;temperature;humidity
17764;BME280;22245;52.832;13.816;2023-03-19T00:03:09;101214.38;;;9.37;70.80
17764;BME280;22245;52.832;13.816;2023-03-19T00:06:31;101207.00;;;9.30;71.07
17764;BME280;22245;52.832;13.816;2023-03-19T00:10:18;101202.84;;;9.25;70.89
17764;BME280;22245;52.832;13.816;2023-03-19T00:13:40;101209.56;;;9.18;71.15
17764;BME280;22245;52.832;13.816;2023-03-19T00:17:01;101214.50;;;9.11;71.46
17764;BME280;22245;52.832;13.816;2023-03-19T00:20:47;101217.47;;;9.07;71.52
17764;BME280;22245;52.832;13.816;2023-03-19T00:24:08;101217.78;;;9.02;71.78
17764;BME280;22245;52.832;13.816;2023-03-19T00:27:32;101213.03;;;8.94;71.71
17764;BME280;22245;52.832;13.816;2023-03-19T00:31:19;101197.63;;;8.87;71.51
17764;BME280;22245;52.832;13.816;2023-03-19T00:34:41;101205.91;;;8.82;71.97
17764;BME280;22245;52.832;13.816;2023-03-19T00:38:03;101211.66;;;8.76;72.15
17764;BME280;22245;52.832;13.816;2023-03-19T00:41:25;101212.19;;;8.68;72.57
17764;BME280;22245;52.832;13.816;2023-03-19T00:44:48;101203.06;;;8.59;72.98
17764;BME280;22245;52.832;13.816;2023-03-19T00:48:10;101208.69;;;8.54;73.35
17764;BME280;22245;52.832;13.816;2023-03-19T00:51:31;101214.22;;;8.51;73.12
17764;BME280;22245;52.832;13.816;2023-03-19T00:54:53;101220.53;;;8.49;73.14
17764;BME280;22245;52.832;13.816;2023-03-19T00:58:15;101223.41;;;8.46;72.83
17764;BME280;22245;52.832;13.816;2023-03-19T01:01:38;101227.22;;;8.42;73.43
17764;BME280;22245;52.832;13.816;2023-03-19T01:05:00;101225.75;;;8.37;73.08
17764;BME280;22245;52.832;13.816;2023-03-19T01:08:22;101228.69;;;8.33;73.10
17764;BME280;22245;52.832;13.816;2023-03-19T01:11:43;101220.88;;;8.31;73.23
17764;BME280;22245;52.832;13.816;2023-03-19T01:15:07;101215.56;;;8.31;73.32
17764;BME280;22245;52.832;13.816;2023-03-19T01:18:29;101225.50;;;8.28;73.02
17764;BME280;22245;52.832;13.816;2023-03-19T01:21:51;101226.69;;;8.23;72.94
17764;BME280;22245;52.832;13.816;2023-03-19T01:25:14;101229.53;;;8.20;73.09
17764;BME280;22245;52.832;13.816;2023-03-19T01:28:48;101229.97;;;8.14;73.59
17764;BME280;22245;52.832;13.816;2023-03-19T01:32:12;101226.88;;;8.07;73.17
17764;BME280;22245;52.832;13.816;2023-03-19T01:35:54;101230.78;;;8.02;73.68
17764;BME280;22245;52.832;13.816;2023-03-19T01:39:19;101230.03;;;8.00;73.76
17764;BME280;22245;52.832;13.816;2023-03-19T01:42:52;101232.03;;;7.96;74.07
17764;BME280;22245;52.832;13.816;2023-03-19T01:46:36;101242.84;;;7.93;74.27
17764;BME280;22245;52.832;13.816;2023-03-19T01:50:23;101238.78;;;7.87;73.68
17764;BME280;22245;52.832;13.816;2023-03-19T01:54:07;101247.16;;;7.81;74.08
17764;BME280;22245;52.832;13.816;2023-03-19T01:57:39;101242.16;;;7.76;74.15
17764;BME280;22245;52.832;13.816;2023-03-19T02:01:01;101246.81;;;7.73;74.64
17764;BME280;22245;52.832;13.816;2023-03-19T02:04:25;101241.59;;;7.71;74.45
17764;BME280;22245;52.832;13.816;2023-03-19T02:07:48;101239.28;;;7.66;74.40
17764;BME280;22245;52.832;13.816;2023-03-19T02:11:11;101243.06;;;7.62;74.19
17764;BME280;22245;52.832;13.816;2023-03-19T02:14:33;101237.97;;;7.59;74.45
17764;BME280;22245;52.832;13.816;2023-03-19T02:17:54;101227.53;;;7.56;74.12
17764;BME280;22245;52.832;13.816;2023-03-19T02:21:18;101229.44;;;7.54;74.16
17764;BME280;22245;52.832;13.816;2023-03-19T02:24:48;101224.53;;;7.48;74.37
17764;BME280;22245;52.832;13.816;2023-03-19T02:28:17;101219.44;;;7.45;75.03
17764;BME280;22245;52.832;13.816;2023-03-19T02:31:40;101224.94;;;7.42;74.56
17764;BME280;22245;52.832;13.816;2023-03-19T02:35:02;101231.19;;;7.41;75.09
17764;BME280;22245;52.832;13.816;2023-03-19T02:38:25;101228.53;;;7.41;74.36
17764;BME280;22245;52.832;13.816;2023-03-19T02:41:48;101232.34;;;7.36;74.53
17764;BME280;22245;52.832;13.816;2023-03-19T02:45:13;101240.50;;;7.33;74.75
17764;BME280;22245;52.832;13.816;2023-03-19T02:48:37;101240.78;;;7.29;74.75
17764;BME280;22245;52.832;13.816;2023-03-19T02:51:58;101232.06;;;7.27;74.90
17764;BME280;22245;52.832;13.816;2023-03-19T02:55:20;101226.97;;;7.23;74.78
17764;BME280;22245;52.832;13.816;2023-03-19T02:58:42;101238.50;;;7.22;75.27
17764;BME280;22245;52.832;13.816;2023-03-19T03:02:05;101233.34;;;7.21;74.83
17764;BME280;22245;52.832;13.816;2023-03-19T03:05:27;101228.97;;;7.20;75.23
17764;BME280;22245;52.832;13.816;2023-03-19T03:08:48;101229.06;;;7.18;75.09
17764;BME280;22245;52.832;13.816;2023-03-19T03:12:09;101240.41;;;7.20;74.79
17764;BME280;22245;52.832;13.816;2023-03-19T03:15:31;101244.09;;;7.18;75.03
17764;BME280;22245;52.832;13.816;2023-03-19T03:18:54;101227.56;;;7.14;75.01
17764;BME280;22245;52.832;13.816;2023-03-19T03:22:16;101241.84;;;7.12;75.24
17764;BME280;22245;52.832;13.816;2023-03-19T03:25:38;101223.41;;;7.10;74.86
17764;BME280;22245;52.832;13.816;2023-03-19T03:29:00;101231.25;;;7.12;75.02
17764;BME280;22245;52.832;13.816;2023-03-19T03:32:22;101236.34;;;7.15;75.20
17764;BME280;22245;52.832;13.816;2023-03-19T03:35:45;101226.59;;;7.15;74.99
17764;BME280;22245;52.832;13.816;2023-03-19T03:39:07;101221.19;;;7.17;74.61
17764;BME280;22245;52.832;13.816;2023-03-19T03:42:28;101221.19;;;7.17;74.57
17764;BME280;22245;52.832;13.816;2023-03-19T03:45:50;101221.41;;;7.14;74.36
17764;BME280;22245;52.832;13.816;2023-03-19T03:49:13;101228.78;;;7.08;74.84
17764;BME280;22245;52.832;13.816;2023-03-19T03:52:36;101227.09;;;7.07;74.88
17764;BME280;22245;52.832;13.816;2023-03-19T03:55:57;101222.72;;;7.06;74.89
17764;BME280;22245;52.832;13.816;2023-03-19T03:59:21;101222.84;;;7.05;75.23
17764;BME280;22245;52.832;13.816;2023-03-19T04:02:43;101224.44;;;7.07;75.03
17764;BME280;22245;52.832;13.816;2023-03-19T04:06:08;101215.66;;;7.07;74.77
17764;BME280;22245;52.832;13.816;2023-03-19T04:09:34;101226.34;;;7.05;74.93
17764;BME280;22245;52.832;13.816;2023-03-19T04:12:56;101226.53;;;7.02;75.25
17764;BME280;22245;52.832;13.816;2023-03-19T04:16:20;101230.31;;;6.98;75.42
17764;BME280;22245;52.832;13.816;2023-03-19T04:19:42;101231.47;;;6.94;75.52
17764;BME280;22245;52.832;13.816;2023-03-19T04:23:03;101239.41;;;6.94;75.60
17764;BME280;22245;52.832;13.816;2023-03-19T04:26:26;101263.44;;;6.91;75.42
17764;BME280;22245;52.832;13.816;2023-03-19T04:29:48;101299.31;;;6.80;76.64
17764;BME280;22245;52.832;13.816;2023-03-19T04:33:10;101264.81;;;6.82;76.47
17764;BME280;22245;52.832;13.816;2023-03-19T04:36:32;101290.34;;;6.83;76.75
17764;BME280;22245;52.832;13.816;2023-03-19T04:39:54;101257.66;;;6.84;76.85
17764;BME280;22245;52.832;13.816;2023-03-19T04:43:17;101277.88;;;6.85;76.69
17764;BME280;22245;52.832;13.816;2023-03-19T04:46:39;101283.84;;;6.89;77.20
17764;BME280;22245;52.832;13.816;2023-03-19T04:50:01;101288.19;;;6.90;76.80
17764;BME280;22245;52.832;13.816;2023-03-19T04:53:25;101295.19;;;6.91;76.71
17764;BME280;22245;52.832;13.816;2023-03-19T04:56:47;101302.19;;;6.92;77.02
17764;BME280;22245;52.832;13.816;2023-03-19T05:00:12;101303.03;;;6.92;76.81
17764;BME280;22245;52.832;13.816;2023-03-19T05:03:37;101303.03;;;6.92;77.01
17764;BME280;22245;52.832;13.816;2023-03-19T05:06:58;101309.19;;;6.93;77.27
17764;BME280;22245;52.832;13.816;2023-03-19T05:10:21;101307.50;;;6.92;76.76
17764;BME280;22245;52.832;13.816;2023-03-19T05:13:43;101312.88;;;6.90;76.76
17764;BME280;22245;52.832;13.816;2023-03-19T05:17:07;101313.81;;;6.89;76.91
17764;BME280;22245;52.832;13.816;2023-03-19T05:20:46;101319.09;;;6.89;77.01
17764;BME280;22245;52.832;13.816;2023-03-19T05:24:11;101312.88;;;6.90;76.98
17764;BME280;22245;52.832;13.816;2023-03-19T05:27:32;101302.28;;;6.90;77.18
17764;BME280;22245;52.832;13.816;2023-03-19T05:30:57;101310.97;;;6.92;77.39
17764;BME280;22245;52.832;13.816;2023-03-19T05:34:28;101310.91;;;6.94;77.39
17764;BME280;22245;52.832;13.816;2023-03-19T05:37:50;101301.06;;;6.96;77.21
17764;BME280;22245;52.832;13.816;2023-03-19T05:41:12;101313.16;;;7.00;77.21
17764;BME280;22245;52.832;13.816;2023-03-19T05:44:44;101319.97;;;7.04;77.22
17764;BME280;22245;52.832;13.816;2023-03-19T05:48:13;101327.91;;;7.04;77.75
17764;BME280;22245;52.832;13.816;2023-03-19T05:51:38;101329.63;;;7.05;77.59
17764;BME280;22245;52.832;13.816;2023-03-19T05:55:01;101333.97;;;7.06;77.59
17764;BME280;22245;52.832;13.816;2023-03-19T05:58:29;101338.25;;;7.09;78.10
17764;BME280;22245;52.832;13.816;2023-03-19T06:01:51;101359.31;;;7.10;77.82
17764;BME280;22245;52.832;13.816;2023-03-19T06:05:13;101349.50;;;7.13;78.12
17764;BME280;22245;52.832;13.816;2023-03-19T06:08:36;101359.91;;;7.16;78.54
17764;BME280;22245;52.832;13.816;2023-03-19T06:12:17;101367.75;;;7.17;78.88
17764;BME280;22245;52.832;13.816;2023-03-19T06:16:00;101382.22;;;7.12;79.78
17764;BME280;22245;52.832;13.816;2023-03-19T06:19:26;101381.09;;;7.16;80.65
17764;BME280;22245;52.832;13.816;2023-03-19T06:22:47;101387.06;;;7.19;81.27
17764;BME280;22245;52.832;13.816;2023-03-19T06:26:11;101386.03;;;7.22;80.77
17764;BME280;22245;52.832;13.816;2023-03-19T06:29:40;101383.28;;;7.23;81.65
17764;BME280;22245;52.832;13.816;2023-03-19T06:33:17;101380.56;;;7.25;81.13
17764;BME280;22245;52.832;13.816;2023-03-19T06:36:38;101377.16;;;7.23;81.19
17764;BME280;22245;52.832;13.816;2023-03-19T06:40:03;101370.97;;;7.22;82.07
17764;BME280;22245;52.832;13.816;2023-03-19T06:43:26;101379.59;;;7.26;81.88
17764;BME280;22245;52.832;13.816;2023-03-19T06:46:48;101366.16;;;7.29;82.58
17764;BME280;22245;52.832;13.816;2023-03-19T06:50:10;101337.59;;;7.34;82.58
17764;BME280;22245;52.832;13.816;2023-03-19T06:53:32;101319.41;;;7.43;82.89
17764;BME280;22245;52.832;13.816;2023-03-19T06:56:54;101290.16;;;7.44;82.78
17764;BME280;22245;52.832;13.816;2023-03-19T07:00:18;101250.22;;;7.47;82.70
17764;BME280;22245;52.832;13.816;2023-03-19T07:03:40;101263.06;;;7.53;82.63
17764;BME280;22245;52.832;13.816;2023-03-19T07:07:01;101311.44;;;7.43;84.58
17764;BME280;22245;52.832;13.816;2023-03-19T07:10:25;101304.16;;;7.46;85.34
17764;BME280;22245;52.832;13.816;2023-03-19T07:13:46;101296.03;;;7.49;85.93
17764;BME280;22245;52.832;13.816;2023-03-19T07:17:09;101308.97;;;7.54;86.60
17764;BME280;22245;52.832;13.816;2023-03-19T07:20:31;101301.47;;;7.61;87.23
17764;BME280;22245;52.832;13.816;2023-03-19T07:23:53;101315.97;;;7.70;87.55
17764;BME280;22245;52.832;13.816;2023-03-19T07:27:15;101326.16;;;7.76;87.97
17764;BME280;22245;52.832;13.816;2023-03-19T07:30:37;101346.16;;;7.81;88.95
17764;BME280;22245;52.832;13.816;2023-03-19T07:34:00;101340.53;;;7.86;89.39
17764;BME280;22245;52.832;13.816;2023-03-19T07:37:22;101349.97;;;7.90;89.82
17764;BME280;22245;52.832;13.816;2023-03-19T07:40:43;101345.06;;;7.99;90.36
17764;BME280;22245;52.832;13.816;2023-03-19T07:44:21;101373.72;;;8.06;90.34
17764;BME280;22245;52.832;13.816;2023-03-19T07:47:42;101376.19;;;8.09;90.98
17764;BME280;22245;52.832;13.816;2023-03-19T07:51:05;101388.19;;;8.15;91.80
17764;BME280;22245;52.832;13.816;2023-03-19T07:54:27;101372.84;;;8.20;92.05
17764;BME280;22245;52.832;13.816;2023-03-19T07:57:50;101383.03;;;8.26;90.99
17764;BME280;22245;52.832;13.816;2023-03-19T08:01:12;101400.19;;;8.35;90.91
17764;BME280;22245;52.832;13.816;2023-03-19T08:04:34;101395.31;;;8.42;90.96
17764;BME280;22245;52.832;13.816;2023-03-19T08:07:57;101413.50;;;8.48;91.62
17764;BME280;22245;52.832;13.816;2023-03-19T08:11:19;101429.03;;;8.54;90.77
17764;BME280;22245;52.832;13.816;2023-03-19T08:14:41;101442.13;;;8.58;91.38
17764;BME280;22245;52.832;13.816;2023-03-19T08:18:04;101449.13;;;8.59;91.72
17764;BME280;22245;52.832;13.816;2023-03-19T08:21:26;101447.22;;;8.61;91.77
17764;BME280;22245;52.832;13.816;2023-03-19T08:24:50;101434.50;;;8.66;90.87
17764;BME280;22245;52.832;13.816;2023-03-19T08:28:12;101430.78;;;8.68;91.30
17764;BME280;22245;52.832;13.816;2023-03-19T08:31:33;101424.25;;;8.74;91.12
17764;BME280;22245;52.832;13.816;2023-03-19T08:34:54;101400.00;;;8.79;91.09
17764;BME280;22245;52.832;13.816;2023-03-19T08:38:15;101370.50;;;8.83;90.99
17764;BME280;22245;52.832;13.816;2023-03-19T08:41:39;101356.03;;;8.88;91.03
17764;BME280;22245;52.832;13.816;2023-03-19T08:45:00;101340.53;;;8.94;91.25
17764;BME280;22245;52.832;13.816;2023-03-19T08:48:22;101330.53;;;8.98;91.17
17764;BME280;22245;52.832;13.816;2023-03-19T08:51:43;101321.41;;;9.02;91.00
17764;BME280;22245;52.832;13.816;2023-03-19T08:55:06;101294.59;;;9.05;90.84
17764;BME280;22245;52.832;13.816;2023-03-19T08:58:29;101291.19;;;9.16;91.07
17764;BME280;22245;52.832;13.816;2023-03-19T09:01:52;101296.09;;;9.22;91.80
17764;BME280;22245;52.832;13.816;2023-03-19T09:05:14;101315.09;;;9.29;92.07
17764;BME280;22245;52.832;13.816;2023-03-19T09:08:36;101334.16;;;9.36;91.51
17764;BME280;22245;52.832;13.816;2023-03-19T09:11:58;101353.50;;;9.38;92.66
17764;BME280;22245;52.832;13.816;2023-03-19T09:15:21;101343.47;;;9.41;93.34
17764;BME280;22245;52.832;13.816;2023-03-19T09:18:42;101365.59;;;9.42;93.43
17764;BME280;22245;52.832;13.816;2023-03-19T09:22:04;101397.06;;;9.35;94.68
17764;BME280;22245;52.832;13.816;2023-03-19T09:25:26;101406.66;;;9.25;95.38
17764;BME280;22245;52.832;13.816;2023-03-19T09:28:48;101406.66;;;9.25;96.13
17764;BME280;22245;52.832;13.816;2023-03-19T09:32:12;101407.31;;;9.29;96.57
17764;BME280;22245;52.832;13.816;2023-03-19T09:35:33;101400.69;;;9.34;96.88
17764;BME280;22245;52.832;13.816;2023-03-19T09:38:57;101416.97;;;9.43;96.47
17764;BME280;22245;52.832;13.816;2023-03-19T09:42:30;101444.72;;;9.51;96.34
17764;BME280;22245;52.832;13.816;2023-03-19T09:45:58;101445.03;;;9.60;95.75
17764;BME280;22245;52.832;13.816;2023-03-19T09:49:27;101438.44;;;9.65;95.17
17764;BME280;22245;52.832;13.816;2023-03-19T09:52:55;101442.38;;;9.73;95.05
17764;BME280;22245;52.832;13.816;2023-03-19T09:56:18;101445.31;;;9.81;95.26
17764;BME280;22245;52.832;13.816;2023-03-19T09:59:40;101435.97;;;9.88;94.68
17764;BME280;22245;52.832;13.816;2023-03-19T10:03:05;101439.16;;;9.93;93.88
17764;BME280;22245;52.832;13.816;2023-03-19T10:06:35;101437.00;;;9.98;93.42
17764;BME280;22245;52.832;13.816;2023-03-19T10:10:14;101427.75;;;10.04;93.66
17764;BME280;22245;52.832;13.816;2023-03-19T10:13:51;101410.47;;;10.10;93.12
17764;BME280;22245;52.832;13.816;2023-03-19T10:17:15;101401.28;;;10.14;93.42
17764;BME280;22245;52.832;13.816;2023-03-19T10:20:51;101403.63;;;10.19;93.08
17764;BME280;22245;52.832;13.816;2023-03-19T10:24:20;101407.75;;;10.23;92.95
17764;BME280;22245;52.832;13.816;2023-03-19T10:27:44;101401.16;;;10.28;92.46
17764;BME280;22245;52.832;13.816;2023-03-19T10:31:24;101378.66;;;10.33;93.01
17764;BME280;22245;52.832;13.816;2023-03-19T10:34:47;101373.81;;;10.38;93.10
17764;BME280;22245;52.832;13.816;2023-03-19T10:38:18;101361.91;;;10.44;92.69
17764;BME280;22245;52.832;13.816;2023-03-19T10:41:46;101349.94;;;10.49;92.87
17764;BME280;22245;52.832;13.816;2023-03-19T10:45:19;101341.59;;;10.54;92.32
17764;BME280;22245;52.832;13.816;2023-03-19T10:48:43;101347.31;;;10.61;92.73
17764;BME280;22245;52.832;13.816;2023-03-19T10:52:12;101339.84;;;10.66;92.96
17764;BME280;22245;52.832;13.816;2023-03-19T10:55:37;101326.13;;;10.70;92.76
17764;BME280;22245;52.832;13.816;2023-03-19T10:59:02;101317.81;;;10.75;93.19
17764;BME280;22245;52.832;13.816;2023-03-19T11:02:25;101314.56;;;10.83;93.68
17764;BME280;22245;52.832;13.816;2023-03-19T11:06:03;101322.91;;;10.90;93.96
17764;BME280;22245;52.832;13.816;2023-03-19T11:09:31;101310.78;;;10.97;94.11
17764;BME280;22245;52.832;13.816;2023-03-19T11:12:56;101302.09;;;11.06;93.20
17764;BME280;22245;52.832;13.816;2023-03-19T11:16:19;101304.03;;;11.15;93.23
17764;BME280;22245;52.832;13.816;2023-03-19T11:19:48;101298.94;;;11.24;93.37
17764;BME280;22245;52.832;13.816;2023-03-19T11:23:14;101288.41;;;11.34;93.86
17764;BME280;22245;52.832;13.816;2023-03-19T11:26:36;101283.91;;;11.46;94.36
17764;BME280;22245;52.832;13.816;2023-03-19T11:29:58;101290.91;;;11.58;93.31
17764;BME280;22245;52.832;13.816;2023-03-19T11:34:00;101288.19;;;11.69;92.42
17764;BME280;22245;52.832;13.816;2023-03-19T11:37:32;101286.34;;;11.81;92.47
17764;BME280;22245;52.832;13.816;2023-03-19T11:41:05;101278.44;;;11.91;92.71
17764;BME280;22245;52.832;13.816;2023-03-19T11:44:37;101286.59;;;12.01;91.95
17764;BME280;22245;52.832;13.816;2023-03-19T11:48:17;101288.34;;;12.12;92.26
17764;BME280;22245;52.832;13.816;2023-03-19T11:51:49;101281.28;;;12.22;91.94
17764;BME280;22245;52.832;13.816;2023-03-19T11:55:18;101285.84;;;12.32;92.06
17764;BME280;22245;52.832;13.816;2023-03-19T11:58:56;101293.06;;;12.41;92.26
17764;BME280;22245;52.832;13.816;2023-03-19T12:06:29;101297.31;;;12.65;91.94
17764;BME280;22245;52.832;13.816;2023-03-19T12:10:21;101292.31;;;12.71;91.16
17764;BME280;22245;52.832;13.816;2023-03-19T12:14:01;101298.53;;;12.82;90.48
17764;BME280;22245;52.832;13.816;2023-03-19T12:17:39;101300.41;;;12.91;91.11
17764;BME280;22245;52.832;13.816;2023-03-19T12:21:08;101305.81;;;13.01;90.84
17764;BME280;22245;52.832;13.816;2023-03-19T12:24:40;101304.03;;;13.11;90.19
17764;BME280;22245;52.832;13.816;2023-03-19T12:28:16;101305.06;;;13.20;89.97
17764;BME280;22245;52.832;13.816;2023-03-19T12:31:47;101304.25;;;13.29;89.65
17764;BME280;22245;52.832;13.816;2023-03-19T12:35:13;101311.59;;;13.37;88.82
17764;BME280;22245;52.832;13.816;2023-03-19T12:38:39;101314.59;;;13.44;88.67
17764;BME280;22245;52.832;13.816;2023-03-19T12:42:03;101319.81;;;13.45;87.43
17764;BME280;22245;52.832;13.816;2023-03-19T12:45:31;101317.84;;;13.48;86.31
17764;BME280;22245;52.832;13.816;2023-03-19T12:48:57;101311.53;;;13.49;85.66
17764;BME280;22245;52.832;13.816;2023-03-19T12:52:24;101319.28;;;13.52;84.86
17764;BME280;22245;52.832;13.816;2023-03-19T12:55:49;101318.00;;;13.56;84.73
17764;BME280;22245;52.832;13.816;2023-03-19T12:59:20;101316.03;;;13.58;83.89
17764;BME280;22245;52.832;13.816;2023-03-19T13:02:51;101317.75;;;13.59;83.24
17764;BME280;22245;52.832;13.816;2023-03-19T13:06:18;101311.56;;;13.58;83.01
17764;BME280;22245;52.832;13.816;2023-03-19T13:09:45;101319.44;;;13.60;82.42
17764;BME280;22245;52.832;13.816;2023-03-19T13:13:23;101318.31;;;13.63;82.06
17764;BME280;22245;52.832;13.816;2023-03-19T13:16:51;101320.88;;;13.64;81.73
17764;BME280;22245;52.832;13.816;2023-03-19T13:20:21;101317.78;;;13.69;81.10
17764;BME280;22245;52.832;13.816;2023-03-19T13:23:47;101319.47;;;13.70;80.68
17764;BME280;22245;52.832;13.816;2023-03-19T13:27:13;101316.78;;;13.70;79.94
17764;BME280;22245;52.832;13.816;2023-03-19T13:30:36;101317.22;;;13.75;79.44
17764;BME280;22245;52.832;13.816;2023-03-19T13:34:00;101315.69;;;13.72;79.60
17764;BME280;22245;52.832;13.816;2023-03-19T13:37:25;101321.31;;;13.69;80.89
17764;BME280;22245;52.832;13.816;2023-03-19T13:40:49;101315.69;;;13.72;80.19
17764;BME280;22245;52.832;13.816;2023-03-19T13:44:38;101312.56;;;13.77;80.47
17764;BME280;22245;52.832;13.816;2023-03-19T13:48:21;101309.91;;;13.87;81.30
17764;BME280;22245;52.832;13.816;2023-03-19T13:51:44;101301.06;;;13.86;79.51
17764;BME280;22245;52.832;13.816;2023-03-19T13:55:31;101303.16;;;13.93;79.87
17764;BME280;22245;52.832;13.816;2023-03-19T13:59:20;101297.38;;;13.97;78.46
17764;BME280;22245;52.832;13.816;2023-03-19T14:02:48;101296.84;;;14.03;78.36
17764;BME280;22245;52.832;13.816;2023-03-19T14:06:32;101295.41;;;13.99;77.69
17764;BME280;22245;52.832;13.816;2023-03-19T14:10:03;101292.31;;;14.04;78.80
17764;BME280;22245;52.832;13.816;2023-03-19T14:13:32;101292.59;;;14.11;77.34
17764;BME280;22245;52.832;13.816;2023-03-19T14:16:55;101286.81;;;14.15;78.55
17764;BME280;22245;52.832;13.816;2023-03-19T14:20:22;101284.28;;;14.24;78.35
17764;BME280;22245;52.832;13.816;2023-03-19T14:24:20;101289.63;;;14.33;76.88
17764;BME280;22245;52.832;13.816;2023-03-19T14:28:09;101289.91;;;14.40;76.36
17764;BME280;22245;52.832;13.816;2023-03-19T14:31:39;101276.91;;;14.45;74.93
17764;BME280;22245;52.832;13.816;2023-03-19T14:35:03;101270.84;;;14.53;74.79
17764;BME280;22245;52.832;13.816;2023-03-19T14:38:33;101282.69;;;14.60;74.59
17764;BME280;22245;52.832;13.816;2023-03-19T14:42:00;101272.06;;;14.69;74.21
17764;BME280;22245;52.832;13.816;2023-03-19T14:45:40;101274.19;;;14.75;74.40
17764;BME280;22245;52.832;13.816;2023-03-19T14:49:26;101270.09;;;14.81;75.37
17764;BME280;22245;52.832;13.816;2023-03-19T14:52:58;101278.53;;;14.86;73.91
17764;BME280;22245;52.832;13.816;2023-03-19T14:56:25;101268.81;;;14.85;72.67
17764;BME280;22245;52.832;13.816;2023-03-19T14:59:48;101278.84;;;14.83;73.04
17764;BME280;22245;52.832;13.816;2023-03-19T15:03:19;101271.50;;;14.85;72.59
17764;BME280;22245;52.832;13.816;2023-03-19T15:06:50;101278.25;;;14.89;72.39
17764;BME280;22245;52.832;13.816;2023-03-19T15:10:15;101266.41;;;14.92;71.88
17764;BME280;22245;52.832;13.816;2023-03-19T15:13:52;101276.84;;;14.95;71.36
17764;BME280;22245;52.832;13.816;2023-03-19T15:17:22;101277.94;;;14.92;71.33
17764;BME280;22245;52.832;13.816;2023-03-19T15:20:46;101273.19;;;14.76;71.38
17764;BME280;22245;52.832;13.816;2023-03-19T15:24:15;101273.50;;;14.73;72.24
17764;BME280;22245;52.832;13.816;2023-03-19T15:27:37;101271.81;;;14.72;71.83
17764;BME280;22245;52.832;13.816;2023-03-19T15:31:01;101275.34;;;14.72;72.73
17764;BME280;22245;52.832;13.816;2023-03-19T15:34:44;101260.53;;;14.78;71.43
17764;BME280;22245;52.832;13.816;2023-03-19T15:38:07;101269.66;;;14.85;71.03
17764;BME280;22245;52.832;13.816;2023-03-19T15:41:32;101273.16;;;14.96;71.51
17764;BME280;22245;52.832;13.816;2023-03-19T15:44:59;101265.78;;;15.08;70.40
17764;BME280;22245;52.832;13.816;2023-03-19T15:48:25;101262.63;;;15.12;70.62
17764;BME280;22245;52.832;13.816;2023-03-19T15:51:50;101265.19;;;15.14;70.47
17764;BME280;22245;52.832;13.816;2023-03-19T15:55:15;101262.34;;;15.15;69.88
17764;BME280;22245;52.832;13.816;2023-03-19T15:58:40;101265.03;;;15.15;70.25
17764;BME280;22245;52.832;13.816;2023-03-19T16:02:13;101262.19;;;15.17;70.17
17764;BME280;22245;52.832;13.816;2023-03-19T16:05:37;101269.13;;;15.19;70.82
17764;BME280;22245;52.832;13.816;2023-03-19T16:09:14;101272.78;;;15.18;71.37
17764;BME280;22245;52.832;13.816;2023-03-19T16:12:38;101273.09;;;15.15;72.30
17764;BME280;22245;52.832;13.816;2023-03-19T16:16:04;101282.41;;;15.11;71.86
17764;BME280;22245;52.832;13.816;2023-03-19T16:19:30;101276.50;;;15.08;72.02
17764;BME280;22245;52.832;13.816;2023-03-19T16:22:53;101278.50;;;15.05;73.43
17764;BME280;22245;52.832;13.816;2023-03-19T16:26:21;101288.66;;;15.02;74.23
17764;BME280;22245;52.832;13.816;2023-03-19T16:29:44;101284.72;;;14.96;73.86
17764;BME280;22245;52.832;13.816;2023-03-19T16:33:11;101291.53;;;14.90;74.52
17764;BME280;22245;52.832;13.816;2023-03-19T16:36:34;101294.78;;;14.84;75.20
17764;BME280;22245;52.832;13.816;2023-03-19T16:39:58;101299.19;;;14.75;75.36
17764;BME280;22245;52.832;13.816;2023-03-19T16:43:22;101297.34;;;14.66;75.48
17764;BME280;22245;52.832;13.816;2023-03-19T16:46:44;101298.91;;;14.59;76.78
17764;BME280;22245;52.832;13.816;2023-03-19T16:50:09;101301.59;;;14.49;77.23
17764;BME280;22245;52.832;13.816;2023-03-19T16:53:31;101297.13;;;14.40;76.88
17764;BME280;22245;52.832;13.816;2023-03-19T16:56:52;101291.59;;;14.31;77.70
17764;BME280;22245;52.832;13.816;2023-03-19T17:00:15;101300.22;;;14.25;77.67
17764;BME280;22245;52.832;13.816;2023-03-19T17:03:37;101300.91;;;14.17;78.49
17764;BME280;22245;52.832;13.816;2023-03-19T17:07:00;101303.44;;;14.09;78.65
17764;BME280;22245;52.832;13.816;2023-03-19T17:10:25;101298.66;;;14.03;79.00
17764;BME280;22245;52.832;13.816;2023-03-19T17:13:47;101302.19;;;13.94;78.82
17764;BME280;22245;52.832;13.816;2023-03-19T17:17:15;101295.00;;;13.84;79.63
17764;BME280;22245;52.832;13.816;2023-03-19T17:20:42;101301.72;;;13.79;79.28
17764;BME280;22245;52.832;13.816;2023-03-19T17:24:20;101300.72;;;13.70;79.50
17764;BME280;22245;52.832;13.816;2023-03-19T17:27:43;101304.94;;;13.63;80.41
17764;BME280;22245;52.832;13.816;2023-03-19T17:31:11;101313.81;;;13.53;80.98
17764;BME280;22245;52.832;13.816;2023-03-19T17:34:39;101312.66;;;13.46;81.13
17764;BME280;22245;52.832;13.816;2023-03-19T17:38:02;101322.16;;;13.39;81.74
17764;BME280;22245;52.832;13.816;2023-03-19T17:41:26;101317.63;;;13.29;82.00
17764;BME280;22245;52.832;13.816;2023-03-19T17:44:51;101322.91;;;13.20;81.51
17764;BME280;22245;52.832;13.816;2023-03-19T17:48:17;101324.00;;;13.07;82.01
17764;BME280;22245;52.832;13.816;2023-03-19T17:51:41;101332.09;;;12.96;82.34
17764;BME280;22245;52.832;13.816;2023-03-19T17:55:13;101323.31;;;12.84;82.66
17764;BME280;22245;52.832;13.816;2023-03-19T17:58:39;101326.63;;;12.76;82.80